Time;durP1;ratioP1;P1;durP2;ratioP2;P2;SDS_P1;SDS_P2;PMS_P1;PMS_P2;Temp;Humidity;BMP_temperature;BMP_pressure;BME280_temperature;BME280_humidity;BME280_pressure;Samples;Min_cycle;Max_cycle;Signal;HPM_P1;HPM_P2
2022/03/14 00:00:16;;;;;;;18.05;11.52;;;8.00;65.40;;;;;;6279104;22;20057;-64
2022/03/14 00:02:42;;;;;;;21.02;12.57;;;7.90;65.10;;;;;;6279161;22;20002;-65
2022/03/14 00:05:10;;;;;;;23.25;13.75;;;8.00;64.40;;;;;;6278646;22;19996;-64
2022/03/14 00:07:37;;;;;;;20.42;11.88;;;8.00;63.50;;;;;;6278771;22;20007;-64
2022/03/14 00:10:07;;;;;;;18.73;11.88;;;8.10;63.90;;;;;;6277129;22;20119;-64
2022/03/14 00:12:32;;;;;;;21.33;12.10;;;8.10;63.80;;;;;;6278785;22;20004;-64
2022/03/14 00:15:01;;;;;;;21.77;13.50;;;8.20;63.50;;;;;;6278330;22;20356;-66
2022/03/14 00:17:28;;;;;;;19.30;11.73;;;8.40;63.10;;;;;;6278810;22;20011;-65
2022/03/14 00:19:57;;;;;;;22.83;12.52;;;8.60;61.50;;;;;;6278769;22;20265;-65
2022/03/14 00:22:24;;;;;;;19.50;11.65;;;8.60;63.30;;;;;;6278924;22;20011;-64
2022/03/14 00:24:49;;;;;;;19.33;12.07;;;8.60;62.80;;;;;;6277269;22;20004;-64
2022/03/14 00:27:15;;;;;;;22.35;12.25;;;8.60;62.70;;;;;;6278672;22;20008;-64
2022/03/14 00:29:41;;;;;;;24.25;12.55;;;8.70;61.70;;;;;;6278627;22;20004;-65
2022/03/14 00:32:09;;;;;;;22.08;13.52;;;8.90;61.30;;;;;;6279814;22;20057;-64
2022/03/14 00:34:35;;;;;;;24.17;14.93;;;9.10;60.90;;;;;;6279355;22;20007;-65
2022/03/14 00:37:01;;;;;;;31.65;16.42;;;9.40;61.80;;;;;;6279398;22;20114;-64
2022/03/14 00:39:27;;;;;;;31.48;17.92;;;9.70;63.10;;;;;;6278040;22;20000;-65
2022/03/14 00:41:52;;;;;;;29.90;18.50;;;9.80;64.10;;;;;;6279725;22;20007;-64
2022/03/14 00:44:18;;;;;;;32.83;18.95;;;9.80;64.80;;;;;;6279849;22;20308;-65
2022/03/14 00:46:44;;;;;;;29.00;17.30;;;9.70;66.10;;;;;;6281065;22;20324;-65
2022/03/14 00:49:10;;;;;;;33.60;18.45;;;9.50;66.70;;;;;;6281483;22;20003;-65
2022/03/14 00:51:36;;;;;;;37.40;21.35;;;9.30;67.60;;;;;;6281198;22;19996;-65
2022/03/14 00:54:03;;;;;;;42.22;22.00;;;9.30;70.60;;;;;;6279140;22;20262;-64
2022/03/14 00:56:29;;;;;;;35.95;21.55;;;9.20;72.10;;;;;;6280987;22;20032;-65
2022/03/14 00:58:55;;;;;;;37.65;22.17;;;9.20;72.50;;;;;;6280740;22;20316;-65
2022/03/14 01:01:22;;;;;;;36.65;21.98;;;9.10;72.90;;;;;;6281408;22;20082;-64
2022/03/14 01:03:50;;;;;;;36.90;21.25;;;9.00;74.10;;;;;;6280921;22;20011;-64
2022/03/14 01:06:16;;;;;;;38.10;19.88;;;8.90;74.70;;;;;;6280780;22;20090;-64
2022/03/14 01:08:42;;;;;;;38.25;22.20;;;8.80;75.20;;;;;;6278741;22;20031;-64
2022/03/14 01:11:07;;;;;;;34.13;21.48;;;8.70;76.50;;;;;;6277398;22;20000;-64
2022/03/14 01:13:36;;;;;;;36.15;21.25;;;8.70;78.00;;;;;;6279120;22;20011;-64
2022/03/14 01:16:03;;;;;;;34.88;22.05;;;8.60;78.70;;;;;;6279346;22;20289;-64
2022/03/14 01:18:32;;;;;;;34.67;21.80;;;8.50;80.20;;;;;;6279319;22;20055;-64
2022/03/14 01:20:57;;;;;;;31.95;20.95;;;8.50;81.40;;;;;;6279305;22;20000;-65
2022/03/14 01:23:23;;;;;;;37.83;22.10;;;8.40;82.60;;;;;;6279313;22;20312;-64
2022/03/14 01:25:50;;;;;;;36.60;23.33;;;8.40;83.30;;;;;;6277238;22;20003;-64
2022/03/14 01:28:19;;;;;;;36.65;23.42;;;8.40;84.10;;;;;;6279531;22;20007;-64
2022/03/14 01:30:44;;;;;;;34.28;22.73;;;8.40;84.50;;;;;;6278563;22;20000;-63
2022/03/14 01:33:11;;;;;;;36.03;22.67;;;8.30;84.70;;;;;;6279195;22;20083;-64
2022/03/14 01:35:39;;;;;;;35.08;22.08;;;8.30;84.90;;;;;;6278797;22;20439;-64
2022/03/14 01:38:05;;;;;;;36.58;22.13;;;8.30;85.10;;;;;;6277443;22;20015;-66
2022/03/14 01:40:30;;;;;;;37.65;22.15;;;8.30;85.10;;;;;;6277463;22;20376;-65
2022/03/14 01:42:56;;;;;;;34.92;21.90;;;8.30;84.90;;;;;;6278488;22;20034;-65
2022/03/14 01:45:22;;;;;;;34.85;21.42;;;8.30;85.30;;;;;;6278995;22;20079;-65
2022/03/14 01:47:52;;;;;;;33.33;21.08;;;8.40;86.00;;;;;;6278460;22;19996;-65
2022/03/14 01:50:18;;;;;;;33.78;21.25;;;8.40;86.40;;;;;;6278512;22;20366;-65
2022/03/14 01:52:45;;;;;;;34.72;21.13;;;8.40;87.60;;;;;;6279030;22;20406;-65
2022/03/14 01:55:13;;;;;;;34.15;20.40;;;8.10;90.20;;;;;;6276305;22;19999;-65
2022/03/14 01:57:39;;;;;;;34.50;20.73;;;7.80;93.20;;;;;;6278886;22;20022;-66
2022/03/14 02:00:08;;;;;;;31.52;19.15;;;7.40;95.00;;;;;;6278525;22;20027;-66
2022/03/14 02:02:33;;;;;;;28.30;18.70;;;7.20;95.30;;;;;;6278319;22;20035;-66
2022/03/14 02:04:59;;;;;;;28.58;18.05;;;7.00;95.50;;;;;;6278663;22;20354;-66
2022/03/14 02:07:26;;;;;;;25.70;16.65;;;6.80;95.40;;;;;;6230209;22;1139797;-66
2022/03/14 02:09:51;;;;;;;24.60;16.58;;;6.70;95.70;;;;;;6278509;22;20004;-65
2022/03/14 02:12:18;;;;;;;24.13;15.38;;;6.70;95.80;;;;;;6279700;22;20014;-65
2022/03/14 02:14:44;;;;;;;21.63;14.20;;;6.70;95.50;;;;;;6280165;22;20072;-65
2022/03/14 02:17:15;;;;;;;21.38;13.45;;;6.60;95.60;;;;;;6280017;22;20003;-65
2022/03/14 02:19:41;;;;;;;20.20;13.30;;;6.60;95.60;;;;;;6280801;22;20008;-65
2022/03/14 02:22:12;;;;;;;19.70;11.55;;;6.60;95.20;;;;;;6280192;22;20270;-65
2022/03/14 02:24:42;;;;;;;17.00;10.02;;;6.50;95.30;;;;;;6278647;22;20020;-66
2022/03/14 02:27:08;;;;;;;14.18;9.20;;;6.50;94.90;;;;;;6278450;22;20053;-65
2022/03/14 02:29:39;;;;;;;13.35;9.15;;;6.50;95.70;;;;;;6280962;22;19999;-66
2022/03/14 02:32:05;;;;;;;13.52;8.55;;;6.40;95.00;;;;;;6279360;22;20169;-66
2022/03/14 02:34:31;;;;;;;14.23;8.13;;;6.40;94.60;;;;;;6280517;22;19996;-66
2022/03/14 02:36:58;;;;;;;12.05;7.85;;;6.30;94.80;;;;;;6280237;22;20010;-65
2022/03/14 02:39:24;;;;;;;10.57;6.78;;;6.30;95.10;;;;;;6277379;22;20424;-66
2022/03/14 02:41:50;;;;;;;10.32;5.95;;;6.30;94.50;;;;;;6280790;22;20003;-66
2022/03/14 02:44:15;;;;;;;10.23;6.35;;;6.20;94.80;;;;;;6280685;22;20050;-65
2022/03/14 02:46:42;;;;;;;12.40;6.80;;;6.20;94.80;;;;;;6279943;22;20079;-65
2022/03/14 02:49:11;;;;;;;10.98;6.45;;;6.20;94.30;;;;;;6278764;22;19999;-65
2022/03/14 02:51:41;;;;;;;10.50;6.10;;;6.10;94.30;;;;;;6279543;22;20000;-65
2022/03/14 02:54:10;;;;;;;10.20;5.65;;;6.10;94.30;;;;;;6279157;22;20007;-65
2022/03/14 02:56:40;;;;;;;9.93;6.20;;;6.10;94.10;;;;;;6279825;22;20007;-64
2022/03/14 02:59:07;;;;;;;9.93;5.68;;;6.10;94.50;;;;;;6280377;22;20078;-65
2022/03/14 03:01:33;;;;;;;8.50;5.32;;;6.00;94.10;;;;;;6278716;22;20015;-65
2022/03/14 03:03:59;;;;;;;8.10;4.93;;;6.00;94.00;;;;;;6279801;22;20000;-65
2022/03/14 03:06:25;;;;;;;9.63;5.32;;;6.00;94.00;;;;;;6279481;22;20083;-64
2022/03/14 03:08:52;;;;;;;9.02;5.32;;;6.00;93.70;;;;;;6279877;22;20369;-66
2022/03/14 03:11:18;;;;;;;8.23;4.82;;;6.00;93.70;;;;;;6279115;22;20007;-64
2022/03/14 03:13:45;;;;;;;6.63;3.75;;;6.00;93.40;;;;;;6280176;22;19996;-65
2022/03/14 03:16:13;;;;;;;6.57;3.90;;;5.90;93.50;;;;;;6279838;22;20370;-65
2022/03/14 03:18:39;;;;;;;6.40;3.47;;;5.90;93.60;;;;;;6280061;22;20015;-65
2022/03/14 03:21:05;;;;;;;8.27;3.05;;;6.00;93.70;;;;;;6280097;22;20004;-65
2022/03/14 03:23:31;;;;;;;6.00;3.60;;;6.00;94.50;;;;;;6280158;22;20008;-64
2022/03/14 03:25:57;;;;;;;4.72;2.80;;;6.00;95.30;;;;;;6278351;22;20066;-65
2022/03/14 03:28:23;;;;;;;7.05;4.03;;;6.00;95.40;;;;;;6279591;22;20027;-65
2022/03/14 03:30:49;;;;;;;5.68;3.03;;;6.00;96.30;;;;;;6280038;22;20239;-65
2022/03/14 03:33:15;;;;;;;5.07;2.63;;;6.00;96.20;;;;;;6280244;22;20000;-66
2022/03/14 03:35:40;;;;;;;5.05;2.88;;;6.00;97.70;;;;;;6279875;22;20008;-66
2022/03/14 03:38:06;;;;;;;6.32;3.20;;;6.00;96.40;;;;;;6279077;22;20051;-66
2022/03/14 03:40:32;;;;;;;4.43;2.28;;;6.00;96.40;;;;;;6278377;22;20000;-66
2022/03/14 03:42:57;;;;;;;4.22;2.30;;;6.00;97.80;;;;;;6279717;22;20388;-66
2022/03/14 03:45:26;;;;;;;4.05;2.35;;;6.00;97.20;;;;;;6278382;22;20387;-66
2022/03/14 03:47:53;;;;;;;4.28;2.20;;;6.00;96.60;;;;;;6277878;22;20000;-66
2022/03/14 03:50:20;;;;;;;4.78;2.00;;;5.90;96.80;;;;;;6279750;22;20262;-66
2022/03/14 03:52:45;;;;;;;4.47;2.30;;;5.90;97.10;;;;;;6279350;22;20022;-66
2022/03/14 03:55:11;;;;;;;4.35;2.30;;;5.90;96.80;;;;;;6278449;22;20072;-66
2022/03/14 03:57:38;;;;;;;3.90;1.95;;;5.80;96.80;;;;;;6279415;22;20010;-66
2022/03/14 04:00:07;;;;;;;3.65;1.80;;;5.80;96.20;;;;;;6279481;22;19999;-66
2022/03/14 04:02:38;;;;;;;4.30;2.10;;;5.70;96.00;;;;;;6280242;22;20003;-66
2022/03/14 04:05:05;;;;;;;4.90;2.63;;;5.70;96.00;;;;;;6279819;22;20024;-66
2022/03/14 04:07:34;;;;;;;3.50;1.80;;;5.70;95.70;;;;;;6279044;22;20110;-65
2022/03/14 04:10:03;;;;;;;3.88;2.00;;;5.70;96.00;;;;;;6278881;22;20098;-66
2022/03/14 04:12:29;;;;;;;3.00;1.60;;;5.70;95.80;;;;;;6279536;22;20369;-66
2022/03/14 04:15:04;;;;;;;2.67;1.50;;;5.70;96.30;;;;;;6279004;22;20006;-66
2022/03/14 04:17:30;;;;;;;3.92;1.77;;;5.70;96.40;;;;;;6279396;22;20008;-65
2022/03/14 04:19:57;;;;;;;2.67;1.45;;;5.70;96.20;;;;;;6279728;22;20686;-66
2022/03/14 04:22:22;;;;;;;2.63;1.60;;;5.70;96.60;;;;;;6278962;22;20399;-64
2022/03/14 04:24:50;;;;;;;3.53;1.90;;;5.70;96.20;;;;;;6277634;22;20004;-65
2022/03/14 04:27:16;;;;;;;3.15;1.90;;;5.70;96.10;;;;;;6279078;22;20000;-64
2022/03/14 04:29:42;;;;;;;4.00;1.90;;;5.70;95.90;;;;;;6279753;22;19999;-64
2022/03/14 04:32:08;;;;;;;3.22;1.70;;;5.70;95.90;;;;;;6278964;22;20019;-66
2022/03/14 04:34:33;;;;;;;3.53;2.00;;;5.70;96.40;;;;;;6279528;22;20000;-66
2022/03/14 04:36:59;;;;;;;3.70;1.80;;;5.70;95.90;;;;;;6279523;22;20014;-66
2022/03/14 04:39:25;;;;;;;4.20;2.20;;;5.60;95.60;;;;;;6277280;22;19999;-65
2022/03/14 04:41:51;;;;;;;7.00;2.90;;;5.60;94.90;;;;;;6278138;22;20015;-66
2022/03/14 04:44:17;;;;;;;4.43;2.45;;;5.60;94.80;;;;;;6278868;22;20053;-66
2022/03/14 04:46:43;;;;;;;5.70;2.58;;;5.70;94.90;;;;;;6279770;22;20261;-66
2022/03/14 04:49:09;;;;;;;5.28;2.88;;;5.70;94.80;;;;;;6278913;22;19996;-65
2022/03/14 04:51:36;;;;;;;4.45;2.50;;;5.60;94.70;;;;;;6279395;22;20023;-65
2022/03/14 04:54:02;;;;;;;4.38;2.42;;;5.60;95.00;;;;;;6277686;22;20004;-65
2022/03/14 04:56:30;;;;;;;5.13;2.67;;;5.60;94.90;;;;;;6278913;22;19996;-65
2022/03/14 04:58:56;;;;;;;3.85;2.15;;;5.50;94.60;;;;;;6278420;22;20057;-65
2022/03/14 05:01:25;;;;;;;4.20;2.00;;;5.50;94.50;;;;;;6279394;22;20318;-65
2022/03/14 05:03:52;;;;;;;4.00;2.30;;;5.50;94.40;;;;;;6278553;22;20007;-65
2022/03/14 05:06:21;;;;;;;4.43;2.50;;;5.50;94.50;;;;;;6279347;22;20015;-67
2022/03/14 05:08:47;;;;;;;4.60;2.10;;;5.60;94.40;;;;;;6279126;22;19999;-65
2022/03/14 05:11:13;;;;;;;5.05;2.28;;;5.50;94.40;;;;;;6277546;22;20077;-65
2022/03/14 05:13:39;;;;;;;4.72;2.45;;;5.50;95.30;;;;;;6279338;22;20035;-65
2022/03/14 05:16:05;;;;;;;3.40;1.80;;;5.40;95.30;;;;;;6278663;22;20027;-66
2022/03/14 05:18:31;;;;;;;3.25;1.60;;;5.40;95.00;;;;;;6279760;22;20004;-65
2022/03/14 05:20:57;;;;;;;2.35;1.27;;;5.40;96.20;;;;;;6278855;22;20007;-65
2022/03/14 05:23:24;;;;;;;3.47;1.70;;;5.40;96.20;;;;;;6278454;22;20003;-65
2022/03/14 05:25:50;;;;;;;2.50;1.40;;;5.40;96.50;;;;;;6277547;22;20038;-65
2022/03/14 05:28:15;;;;;;;2.10;1.25;;;5.50;97.70;;;;;;6279870;22;20004;-66
2022/03/14 05:30:41;;;;;;;2.65;1.50;;;5.60;98.00;;;;;;6279892;22;20003;-66
2022/03/14 05:33:07;;;;;;;2.85;1.45;;;5.60;98.00;;;;;;6280774;22;19999;-65
2022/03/14 05:35:33;;;;;;;2.80;1.50;;;5.60;98.00;;;;;;6280475;22;19996;-66
2022/03/14 05:38:01;;;;;;;3.15;1.30;;;5.60;98.00;;;;;;6280429;22;20073;-66
2022/03/14 05:40:27;;;;;;;3.08;1.70;;;5.60;98.00;;;;;;6278895;22;20000;-65
2022/03/14 05:42:53;;;;;;;3.17;1.58;;;5.60;98.00;;;;;;6279322;22;20004;-65
2022/03/14 05:45:20;;;;;;;4.40;2.10;;;5.60;98.00;;;;;;6280362;22;19999;-66
2022/03/14 05:47:46;;;;;;;8.18;4.97;;;5.60;98.00;;;;;;6280491;22;20040;-65
2022/03/14 05:50:12;;;;;;;10.70;5.55;;;5.60;98.00;;;;;;6280406;22;20000;-66
2022/03/14 05:52:38;;;;;;;6.07;2.60;;;5.60;98.00;;;;;;6280121;22;20430;-65
2022/03/14 05:55:05;;;;;;;3.42;1.70;;;5.60;97.80;;;;;;6278684;22;20254;-67
2022/03/14 05:57:32;;;;;;;3.65;1.50;;;5.60;98.00;;;;;;6280747;22;20120;-65
2022/03/14 05:59:58;;;;;;;4.03;1.80;;;5.50;97.80;;;;;;6280212;22;20027;-65
2022/03/14 06:02:25;;;;;;;11.85;5.78;;;5.60;98.00;;;;;;6280105;22;20376;-65
2022/03/14 06:04:52;;;;;;;5.25;2.50;;;5.50;98.00;;;;;;6279684;22;20003;-65
2022/03/14 06:07:21;;;;;;;11.05;5.63;;;5.50;98.00;;;;;;6280108;22;20111;-65
2022/03/14 06:09:48;;;;;;;13.85;6.10;;;5.40;98.00;;;;;;6278358;22;20000;-65
2022/03/14 06:12:28;;;;;;;11.25;4.22;;;5.30;97.70;;;;;;6280526;22;19999;-65
2022/03/14 06:14:56;;;;;;;8.95;3.45;;;5.20;97.40;;;;;;6280810;22;20010;-65
2022/03/14 06:17:21;;;;;;;15.50;5.82;;;5.30;97.30;;;;;;6279738;22;20008;-65
2022/03/14 06:19:48;;;;;;;15.77;9.02;;;5.30;97.40;;;;;;6279880;22;20052;-66
2022/03/14 06:22:18;;;;;;;6.43;3.55;;;5.40;97.70;;;;;;6279475;22;20004;-65
2022/03/14 06:24:46;;;;;;;5.25;3.20;;;5.60;97.70;;;;;;6277996;22;20003;-65
2022/03/14 06:27:12;;;;;;;4.95;2.63;;;5.80;97.90;;;;;;6279008;22;19999;-64
2022/03/14 06:29:38;;;;;;;5.32;2.70;;;5.90;98.00;;;;;;6279390;22;20066;-65
2022/03/14 06:32:04;;;;;;;11.05;4.78;;;5.90;98.00;;;;;;6280541;22;20069;-65
2022/03/14 06:34:30;;;;;;;5.13;2.60;;;6.10;98.00;;;;;;6280316;22;20010;-65
2022/03/14 06:36:56;;;;;;;7.85;4.65;;;6.20;98.00;;;;;;6280293;22;20365;-65
2022/03/14 06:39:22;;;;;;;4.50;2.17;;;6.30;98.00;;;;;;6278793;22;20007;-65
2022/03/14 06:41:48;;;;;;;5.30;2.20;;;6.30;98.00;;;;;;6279585;22;20296;-65
2022/03/14 06:44:14;;;;;;;2.45;1.27;;;6.40;98.00;;;;;;6279302;22;20312;-65
2022/03/14 06:46:40;;;;;;;2.88;1.60;;;6.40;98.00;;;;;;6279328;22;20004;-65
2022/03/14 06:49:06;;;;;;;5.15;2.33;;;6.40;98.00;;;;;;6278011;22;20007;-65
2022/03/14 06:51:33;;;;;;;3.80;2.10;;;6.40;98.00;;;;;;6280483;22;20019;-65
2022/03/14 06:53:58;;;;;;;4.93;2.90;;;6.20;98.00;;;;;;6279180;22;20398;-65
2022/03/14 06:56:24;;;;;;;3.95;2.10;;;6.20;98.00;;;;;;6280886;22;20008;-65
2022/03/14 06:58:50;;;;;;;5.22;2.20;;;6.30;98.00;;;;;;6281034;22;20003;-65
2022/03/14 07:01:16;;;;;;;4.55;2.10;;;6.30;98.00;;;;;;6281181;22;19999;-65
2022/03/14 07:03:41;;;;;;;8.10;3.50;;;6.40;98.00;;;;;;6280510;22;20125;-65
2022/03/14 07:06:07;;;;;;;5.75;2.15;;;6.40;98.00;;;;;;6280039;22;20003;-64
2022/03/14 07:08:33;;;;;;;4.75;1.67;;;6.40;98.00;;;;;;6280765;22;20383;-66
2022/03/14 07:10:58;;;;;;;7.07;3.42;;;6.40;98.00;;;;;;6279371;22;20000;-65
2022/03/14 07:13:24;;;;;;;6.88;3.42;;;6.40;97.90;;;;;;6280755;22;20601;-65
2022/03/14 07:15:50;;;;;;;6.13;3.05;;;6.50;98.00;;;;;;6280822;22;20018;-65
2022/03/14 07:18:16;;;;;;;7.60;4.13;;;6.60;98.00;;;;;;6280305;22;20004;-65
2022/03/14 07:20:42;;;;;;;6.53;3.80;;;6.70;97.50;;;;;;6279880;22;20000;-67
2022/03/14 07:23:08;;;;;;;6.82;4.00;;;6.70;97.90;;;;;;6280530;22;20004;-67
2022/03/14 07:25:39;;;;;;;7.07;3.63;;;6.80;97.90;;;;;;6278524;22;20026;-66
2022/03/14 07:28:07;;;;;;;9.30;4.70;;;6.80;97.90;;;;;;6280459;22;20290;-65
2022/03/14 07:30:34;;;;;;;8.40;4.55;;;6.90;98.00;;;;;;6280419;22;20053;-65
2022/03/14 07:33:00;;;;;;;10.07;5.13;;;7.10;98.00;;;;;;6280145;22;20353;-66
2022/03/14 07:35:27;;;;;;;5.55;2.85;;;7.20;97.40;;;;;;6280511;22;20061;-65
2022/03/14 07:37:53;;;;;;;5.00;1.90;;;7.20;97.10;;;;;;6280174;22;20000;-67
2022/03/14 07:40:22;;;;;;;7.18;2.30;;;7.30;96.00;;;;;;6278697;22;20015;-65
2022/03/14 07:42:50;;;;;;;4.95;2.28;;;7.30;95.60;;;;;;6280477;22;20006;-65
2022/03/14 07:45:19;;;;;;;5.30;3.20;;;7.10;95.60;;;;;;6279507;22;20020;-65
2022/03/14 07:47:44;;;;;;;3.42;1.98;;;6.90;96.40;;;;;;6279525;22;19999;-65
2022/03/14 07:50:14;;;;;;;5.03;1.65;;;6.80;96.60;;;;;;6277504;22;20082;-65
2022/03/14 07:52:43;;;;;;;4.20;2.20;;;6.70;96.90;;;;;;6277305;22;20000;-65
2022/03/14 07:55:10;;;;;;;4.28;2.50;;;6.60;97.30;;;;;;6275732;22;20006;-65
2022/03/14 07:57:40;;;;;;;4.70;2.55;;;6.70;97.50;;;;;;6279158;22;20003;-65
2022/03/14 08:00:11;;;;;;;2.72;1.60;;;6.90;97.50;;;;;;6280170;22;20023;-65
2022/03/14 08:02:38;;;;;;;6.50;2.20;;;7.00;96.90;;;;;;6278960;22;20107;-66
2022/03/14 08:05:08;;;;;;;4.07;2.05;;;7.10;96.70;;;;;;6278468;22;20274;-65
2022/03/14 08:07:34;;;;;;;4.00;2.30;;;7.20;96.20;;;;;;6277630;22;20086;-65
2022/03/14 08:10:09;;;;;;;4.00;1.85;;;7.60;95.30;;;;;;6278761;22;20377;-64
2022/03/14 08:12:49;;;;;;;3.10;1.30;;;7.50;94.80;;;;;;6280497;22;20061;-64
2022/03/14 08:15:26;;;;;;;5.05;2.67;;;7.70;94.80;;;;;;6279110;22;20300;-64
2022/03/14 08:18:03;;;;;;;5.35;2.55;;;7.80;94.80;;;;;;6280148;22;20312;-64
2022/03/14 08:20:30;;;;;;;4.32;1.88;;;7.80;94.60;;;;;;6280212;22;20061;-67
2022/03/14 08:23:01;;;;;;;4.32;1.73;;;7.70;93.90;;;;;;6280523;22;20261;-65
2022/03/14 08:25:27;;;;;;;4.68;1.85;;;7.40;93.80;;;;;;6277800;22;20000;-67
2022/03/14 08:27:53;;;;;;;5.18;2.20;;;7.20;94.40;;;;;;6279286;22;20003;-66
2022/03/14 08:30:23;;;;;;;5.95;1.92;;;7.20;94.70;;;;;;6280000;22;20261;-67
2022/03/14 08:32:50;;;;;;;4.20;1.60;;;7.20;94.60;;;;;;6278887;22;20004;-67
2022/03/14 08:35:19;;;;;;;6.15;1.60;;;7.20;94.80;;;;;;6279600;22;20034;-67
2022/03/14 08:37:45;;;;;;;4.30;1.90;;;7.40;94.60;;;;;;6279153;22;20004;-65
2022/03/14 08:40:13;;;;;;;3.47;1.55;;;7.60;93.60;;;;;;6278179;22;20049;-65
2022/03/14 08:42:40;;;;;;;3.75;1.83;;;7.80;93.30;;;;;;6278426;22;20133;-66
2022/03/14 08:45:08;;;;;;;7.57;2.78;;;8.10;92.60;;;;;;6279945;22;20122;-65
2022/03/14 08:47:34;;;;;;;4.25;2.22;;;8.40;91.70;;;;;;6280178;22;20004;-65
2022/03/14 08:50:02;;;;;;;8.68;4.03;;;8.00;90.90;;;;;;6280207;22;19999;-65
2022/03/14 08:52:28;;;;;;;7.20;4.00;;;7.80;92.00;;;;;;6279349;22;20328;-65
2022/03/14 08:54:54;;;;;;;5.45;2.58;;;7.80;92.60;;;;;;6278675;22;20004;-65
2022/03/14 08:57:20;;;;;;;4.30;2.00;;;7.70;92.50;;;;;;6278309;22;20019;-66
2022/03/14 08:59:46;;;;;;;3.63;1.50;;;7.60;92.70;;;;;;6279730;22;20004;-66
2022/03/14 09:02:11;;;;;;;4.32;1.95;;;7.60;92.90;;;;;;6278177;22;20384;-65
2022/03/14 09:04:38;;;;;;;3.50;1.65;;;7.70;92.90;;;;;;6279424;22;20071;-65
2022/03/14 09:07:04;;;;;;;2.15;1.10;;;7.90;92.40;;;;;;6280775;22;20366;-65
2022/03/14 09:09:29;;;;;;;4.38;1.50;;;8.60;90.80;;;;;;6279734;22;20010;-65
2022/03/14 09:11:55;;;;;;;3.88;1.35;;;9.70;88.00;;;;;;6281840;22;20369;-65
2022/03/14 09:14:21;;;;;;;5.00;1.27;;;10.90;84.80;;;;;;6282130;22;19999;-66
2022/03/14 09:16:48;;;;;;;3.28;1.05;;;12.40;80.00;;;;;;6279527;22;20047;-66
2022/03/14 09:19:14;;;;;;;3.45;1.23;;;14.00;76.80;;;;;;6281649;22;20049;-65
2022/03/14 09:21:40;;;;;;;3.10;0.90;;;14.10;72.10;;;;;;6282265;22;20310;-65
2022/03/14 09:24:06;;;;;;;5.68;1.67;;;12.60;73.20;;;;;;6280443;22;20003;-65
2022/03/14 09:26:32;;;;;;;2.28;1.15;;;11.10;77.50;;;;;;6281663;22;20004;-64
2022/03/14 09:28:59;;;;;;;3.10;1.20;;;10.00;81.10;;;;;;6281623;22;20000;-66
2022/03/14 09:31:27;;;;;;;4.28;1.50;;;9.10;84.50;;;;;;6281697;22;20000;-65
2022/03/14 09:33:53;;;;;;;3.92;1.40;;;9.40;84.90;;;;;;6281887;22;19996;-65
2022/03/14 09:36:19;;;;;;;3.92;1.40;;;9.30;84.00;;;;;;6281626;22;20079;-65
2022/03/14 09:38:47;;;;;;;3.78;1.10;;;10.00;83.20;;;;;;6282031;22;20077;-66
2022/03/14 09:41:18;;;;;;;2.20;1.10;;;10.50;80.70;;;;;;6280205;22;20431;-65
2022/03/14 09:43:47;;;;;;;2.55;1.10;;;11.50;80.00;;;;;;6281931;22;20058;-65
2022/03/14 09:46:13;;;;;;;3.08;1.20;;;12.70;75.20;;;;;;6281651;22;20049;-65
2022/03/14 09:48:48;;;;;;;4.68;1.10;;;13.30;74.90;;;;;;6282061;22;20003;-65
2022/03/14 09:51:16;;;;;;;2.75;0.90;;;13.60;72.10;;;;;;6281598;22;20071;-65
2022/03/14 09:53:44;;;;;;;7.50;2.90;;;13.50;70.00;;;;;;6281784;22;20359;-66
2022/03/14 09:56:10;;;;;;;5.82;2.03;;;13.80;71.60;;;;;;6280009;22;20004;-66
2022/03/14 09:58:36;;;;;;;3.53;1.00;;;13.80;70.00;;;;;;6281781;22;20061;-66
2022/03/14 10:01:02;;;;;;;5.68;1.52;;;12.50;71.60;;;;;;6281306;22;20352;-66
2022/03/14 10:03:28;;;;;;;9.68;2.85;;;11.10;74.30;;;;;;6281445;22;20054;-65
2022/03/14 10:05:54;;;;;;;3.58;1.33;;;10.40;76.60;;;;;;6281250;22;20265;-65
2022/03/14 10:08:19;;;;;;;7.25;1.75;;;9.70;77.90;;;;;;6281304;22;20097;-65
2022/03/14 10:10:45;;;;;;;5.63;1.67;;;9.30;78.80;;;;;;6280397;22;20000;-66
2022/03/14 10:13:11;;;;;;;4.68;1.33;;;9.20;79.80;;;;;;6281279;22;20072;-65
2022/03/14 10:15:40;;;;;;;3.80;1.40;;;9.20;79.80;;;;;;6281513;22;19999;-64
2022/03/14 10:18:15;;;;;;;4.18;1.30;;;9.60;79.70;;;;;;6280990;22;20000;-65
2022/03/14 10:21:07;;;;;;;3.90;1.73;;;10.40;77.30;;;;;;6281362;22;20003;-65
2022/03/14 10:23:39;;;;;;;6.05;1.88;;;10.50;76.30;;;;;;6281257;22;19996;-65
2022/03/14 10:26:08;;;;;;;5.50;1.42;;;10.00;76.60;;;;;;6279806;22;20011;-66
2022/03/14 10:28:38;;;;;;;2.83;1.00;;;10.40;78.20;;;;;;6281387;22;20023;-65
2022/03/14 10:31:05;;;;;;;2.78;1.00;;;12.20;74.30;;;;;;6281370;22;20000;-65
2022/03/14 10:33:32;;;;;;;3.53;1.20;;;14.30;69.20;;;;;;6281310;22;20361;-65
2022/03/14 10:35:59;;;;;;;4.18;1.35;;;16.30;64.10;;;;;;6281280;22;20027;-66
2022/03/14 10:38:26;;;;;;;4.75;1.00;;;17.50;62.50;;;;;;6281317;22;20008;-66
2022/03/14 10:40:52;;;;;;;3.97;1.67;;;17.40;60.70;;;;;;6279723;22;20103;-66
2022/03/14 10:43:31;;;;;;;3.78;1.35;;;17.80;59.70;;;;;;6280942;22;20008;-66
2022/03/14 10:46:01;;;;;;;5.03;1.50;;;16.90;61.00;;;;;;6281123;22;20377;-66
2022/03/14 10:48:38;;;;;;;5.60;1.35;;;15.80;62.50;;;;;;6280783;22;20361;-65
2022/03/14 10:51:09;;;;;;;5.00;1.40;;;15.90;62.30;;;;;;6280983;22;20003;-65
2022/03/14 10:53:40;;;;;;;4.90;1.35;;;15.40;63.80;;;;;;6281114;22;20022;-66
2022/03/14 10:56:05;;;;;;;5.80;1.90;;;15.80;63.50;;;;;;6278998;22;20004;-65
2022/03/14 10:58:33;;;;;;;3.80;1.10;;;15.90;61.60;;;;;;6280899;22;20435;-65
2022/03/14 11:01:07;;;;;;;6.55;1.30;;;15.30;62.80;;;;;;6281149;22;20007;-66
2022/03/14 11:03:37;;;;;;;7.78;2.95;;;15.50;62.90;;;;;;6280586;22;20029;-65
2022/03/14 11:06:14;;;;;;;5.10;1.52;;;15.10;62.80;;;;;;6280578;22;20031;-64
2022/03/14 11:08:44;;;;;;;4.38;1.60;;;15.50;61.50;;;;;;6281108;22;20008;-64
2022/03/14 11:11:12;;;;;;;4.05;1.58;;;14.90;60.90;;;;;;6279123;22;20007;-64
2022/03/14 11:13:48;;;;;;;4.95;1.80;;;14.40;60.50;;;;;;6280939;22;20265;-64
2022/03/14 11:16:24;;;;;;;6.43;1.90;;;14.30;61.70;;;;;;6280901;22;20027;-66
2022/03/14 11:18:51;;;;;;;5.03;1.33;;;14.70;61.50;;;;;;6280746;22;20446;-66
2022/03/14 11:21:19;;;;;;;5.43;1.25;;;14.20;60.10;;;;;;6280918;22;20125;-67
2022/03/14 11:23:47;;;;;;;5.95;1.80;;;14.00;59.90;;;;;;6281082;22;20034;-67
2022/03/14 11:26:15;;;;;;;7.13;1.88;;;13.70;60.00;;;;;;6279310;22;20007;-66
2022/03/14 11:28:46;;;;;;;4.90;1.70;;;14.20;60.90;;;;;;6280098;22;20006;-66
2022/03/14 11:31:14;;;;;;;5.05;1.75;;;14.50;59.20;;;;;;6280707;22;20026;-66
2022/03/14 11:33:43;;;;;;;4.63;1.70;;;14.20;59.60;;;;;;6280654;22;20007;-65
2022/03/14 11:36:09;;;;;;;5.97;1.42;;;14.50;59.30;;;;;;6281041;22;20008;-65
2022/03/14 11:38:36;;;;;;;4.32;1.40;;;14.40;58.80;;;;;;6280588;22;20010;-64
2022/03/14 11:41:02;;;;;;;6.28;1.30;;;14.20;59.20;;;;;;6279209;22;20057;-65
2022/03/14 11:43:29;;;;;;;5.40;1.52;;;14.40;59.60;;;;;;6280447;22;20014;-64
2022/03/14 11:45:57;;;;;;;5.00;1.40;;;14.60;59.40;;;;;;6280302;22;20004;-66
2022/03/14 11:48:28;;;;;;;8.02;1.60;;;14.50;60.00;;;;;;6280694;22;20441;-65
2022/03/14 11:50:53;;;;;;;6.53;2.10;;;14.50;59.00;;;;;;6280248;22;20000;-65
2022/03/14 11:53:25;;;;;;;6.03;1.42;;;14.10;60.90;;;;;;6280141;22;20418;-65
2022/03/14 11:55:59;;;;;;;6.78;1.60;;;14.20;59.90;;;;;;6279570;22;20003;-64
2022/03/14 11:58:36;;;;;;;4.05;0.90;;;14.70;59.70;;;;;;6280360;22;20030;-65
2022/03/14 12:01:24;;;;;;;4.88;1.27;;;14.80;58.20;;;;;;6280231;22;20045;-64
2022/03/14 12:03:53;;;;;;;5.18;1.20;;;15.20;58.70;;;;;;6280183;22;20061;-64
2022/03/14 12:06:46;;;;;;;6.05;1.77;;;15.10;58.30;;;;;;6280231;22;20012;-65
2022/03/14 12:09:27;;;;;;;4.45;1.63;;;14.80;57.80;;;;;;6278889;22;20003;-65
2022/03/14 12:12:19;;;;;;;6.15;1.52;;;14.50;59.10;;;;;;6280736;22;20074;-65
2022/03/14 12:14:56;;;;;;;4.38;1.20;;;14.40;59.20;;;;;;6280092;22;20379;-65
2022/03/14 12:17:27;;;;;;;5.40;1.52;;;14.70;60.10;;;;;;6280276;22;20250;-65
2022/03/14 12:20:03;;;;;;;5.10;1.50;;;15.50;59.40;;;;;;6280044;22;20014;-66
2022/03/14 12:22:39;;;;;;;4.05;1.20;;;15.00;57.30;;;;;;6280055;22;20257;-65
2022/03/14 12:25:10;;;;;;;4.70;1.30;;;14.50;58.90;;;;;;6278925;22;20007;-65
2022/03/14 12:27:38;;;;;;;4.10;1.48;;;14.70;59.00;;;;;;6280029;22;20388;-65
2022/03/14 12:30:16;;;;;;;5.35;1.40;;;15.00;59.20;;;;;;6279836;22;20027;-65
2022/03/14 12:32:45;;;;;;;3.88;1.10;;;14.90;57.70;;;;;;6280030;22;20000;-66
2022/03/14 12:35:25;;;;;;;7.13;1.50;;;14.80;58.40;;;;;;6280370;22;20269;-65
2022/03/14 12:38:15;;;;;;;3.67;1.10;;;14.70;57.90;;;;;;6279977;22;20011;-65
2022/03/14 12:40:47;;;;;;;4.32;1.40;;;14.80;58.80;;;;;;6280362;22;20003;-65
2022/03/14 12:43:24;;;;;;;3.85;1.17;;;15.20;59.00;;;;;;6282436;22;20027;-65
2022/03/14 12:45:55;;;;;;;4.68;1.20;;;15.20;57.40;;;;;;6282157;22;20004;-66
2022/03/14 12:48:24;;;;;;;4.47;1.20;;;15.00;56.60;;;;;;6281918;22;19999;-65
2022/03/14 12:50:49;;;;;;;5.50;1.00;;;14.90;57.40;;;;;;6282394;22;20369;-65
2022/03/14 12:53:27;;;;;;;5.38;1.48;;;14.80;57.20;;;;;;6282152;22;20003;-64